Anglian Lady — VOLP — position and weather

sailwx.info

Track history (hours):
 
Tides and Currents Weather Stations Pressure Air Temp Water Temp Dewpoint Dewpoint Depression Visibility Wind Speed Wind Dir Waves Ship Positions

Anglian Lady

Last reported at 2014-Nov-22 20:30 UTC. Time now 2014-Nov-28 11:08 UTC.
Position N 45°52' W 084°14'.

Length 32 m; draft 4.7 m.

Type: Tug. MMSI: 316002238.

Date/timePositionNaut miles runAvg speedWind from/ knotsBaromVisibWave heightAir tempDewpointWater temp
2014-Nov-22 20:30N 45°52' W 084°14'9 9.5
2014-Nov-22 19:33N 45°51' W 084°26'9 9.4
2014-Nov-22 18:33N 45°50' W 084°40'10 9.8
2014-Nov-22 17:33N 45°49' W 084°54'9 9.4
2014-Nov-22 16:33N 45°50' W 085°07'8 7.6
2014-Nov-22 15:33N 45°43' W 085°11'9 9.2
2014-Nov-22 14:33N 45°35' W 085°19'9 9.2
2014-Nov-22 13:33N 45°28' W 085°27'9 9.4
2014-Nov-22 12:33N 45°21' W 085°35'10 9.5
2014-Nov-22 11:33N 45°13' W 085°44'10 9.5
2014-Nov-22 10:32N 45°05' W 085°52'  
Track history (hours):
 
Tides and Currents Weather Stations Pressure Air Temp Water Temp Dewpoint Dewpoint Depression Visibility Wind Speed Wind Dir Waves Ship Positions

Anglian Lady

Last reported at 2014-Nov-22 20:30 UTC. Time now 2014-Nov-28 11:08 UTC.
Position N 45°52' W 084°14'.

Length 32 m; draft 4.7 m.

Type: Tug. MMSI: 316002238.

Date/timePositionNaut miles runAvg speedWind from/ knotsBaromVisibWave heightAir tempDewpointWater temp
2014-Nov-22 20:30N 45°52' W 084°14'9 9.5
2014-Nov-22 19:33N 45°51' W 084°26'9 9.4
2014-Nov-22 18:33N 45°50' W 084°40'10 9.8
2014-Nov-22 17:33N 45°49' W 084°54'9 9.4
2014-Nov-22 16:33N 45°50' W 085°07'8 7.6
2014-Nov-22 15:33N 45°43' W 085°11'9 9.2
2014-Nov-22 14:33N 45°35' W 085°19'9 9.2
2014-Nov-22 13:33N 45°28' W 085°27'9 9.4
2014-Nov-22 12:33N 45°21' W 085°35'10 9.5
2014-Nov-22 11:33N 45°13' W 085°44'10 9.5
2014-Nov-22 10:32N 45°05' W 085°52'  

Dump ship's entire track history